createdAt,value
2019-05-16T00:04:40.663Z,13.60
2019-05-16T00:09:38.131Z,13.90
2019-05-16T00:12:04.652Z,13.80
2019-05-16T00:21:59.730Z,13.90
2019-05-16T00:24:29.122Z,13.70
2019-05-16T00:29:24.562Z,13.60
2019-05-16T00:31:52.053Z,13.30
2019-05-16T00:36:49.410Z,13.30
2019-05-16T00:39:18.747Z,13.30
2019-05-16T00:44:14.051Z,13.50
2019-05-16T00:46:41.619Z,13.50
2019-05-16T00:49:09.120Z,13.40
2019-05-16T00:51:37.716Z,13.40
2019-05-16T00:54:05.055Z,13.60
2019-05-16T00:56:33.312Z,13.30
2019-05-16T00:59:00.867Z,13.30
2019-05-16T01:01:29.903Z,12.80
2019-05-16T01:03:58.665Z,12.80
2019-05-16T01:06:28.592Z,12.80
2019-05-16T01:08:54.603Z,13.30
2019-05-16T01:11:22.086Z,13.30
2019-05-16T01:13:50.454Z,13.50
2019-05-16T01:16:18.903Z,13.40
2019-05-16T01:18:48.524Z,13.40
2019-05-16T01:21:13.978Z,12.80
2019-05-16T01:23:41.532Z,13.00
2019-05-16T01:26:09.153Z,13.20
2019-05-16T01:28:37.722Z,13.10
2019-05-16T01:31:05.133Z,12.80
2019-05-16T01:33:32.628Z,12.80
2019-05-16T01:36:00.937Z,12.90
2019-05-16T01:38:28.677Z,12.90
2019-05-16T01:40:58.286Z,12.90
2019-05-16T01:43:24.592Z,12.90
2019-05-16T01:45:52.180Z,12.80
2019-05-16T01:48:20.507Z,13.00
2019-05-16T01:50:48.220Z,13.00
2019-05-16T01:53:17.892Z,12.50
2019-05-16T01:55:44.671Z,12.50
2019-05-16T01:58:12.343Z,12.50
2019-05-16T02:00:49.160Z,12.60
2019-05-16T02:03:08.295Z,12.50
2019-05-16T02:05:35.175Z,12.10
2019-05-16T02:08:02.804Z,12.10
2019-05-16T02:10:30.355Z,12.60
2019-05-16T02:12:58.198Z,12.10
2019-05-16T02:15:28.569Z,12.00
2019-05-16T03:39:51.796Z,11.00
2019-05-16T03:42:20.494Z,11.00
2019-05-16T03:44:46.841Z,10.80
2019-05-16T03:47:15.115Z,10.80
2019-05-16T03:49:43.362Z,11.30
2019-05-16T03:52:11.435Z,11.30
2019-05-16T03:54:41.753Z,11.70
2019-05-16T03:57:05.947Z,11.70
2019-05-16T03:59:33.532Z,11.70
2019-05-16T04:02:01.733Z,11.70
2019-05-16T04:04:30.928Z,11.50
2019-05-16T04:07:01.125Z,11.20
2019-05-16T04:09:25.837Z,11.20
2019-05-16T04:11:53.513Z,11.40
2019-05-16T04:14:21.564Z,11.60
2019-05-16T04:16:51.065Z,11.50
2019-05-16T04:19:20.876Z,10.80
2019-05-16T04:21:45.496Z,10.80
2019-05-16T04:24:12.983Z,10.60
2019-05-16T04:26:41.451Z,10.50
2019-05-16T04:29:11.965Z,10.80
2019-05-16T04:31:41.046Z,10.50
2019-05-16T04:34:05.530Z,10.50
2019-05-16T04:36:33.139Z,10.10
2019-05-16T04:39:01.787Z,10.10
2019-05-16T04:41:31.134Z,10.30
2019-05-16T04:43:55.716Z,11.00
2019-05-16T04:46:23.242Z,11.40
2019-05-16T04:48:51.055Z,11.40
2019-05-16T04:51:21.596Z,11.70
2019-05-16T04:53:45.871Z,11.40
2019-05-16T04:56:13.384Z,11.20
2019-05-16T04:58:41.190Z,11.40
2019-05-16T05:01:11.141Z,11.40
2019-05-16T05:03:36.129Z,11.10
2019-05-16T05:06:03.615Z,11.20
2019-05-16T05:08:48.656Z,11.10
2019-05-16T05:11:01.397Z,11.40
2019-05-16T05:13:30.499Z,11.40
2019-05-16T05:15:55.156Z,11.20
2019-05-16T05:18:22.645Z,11.30
2019-05-16T05:20:52.225Z,11.30
2019-05-16T05:23:17.792Z,11.50
2019-05-16T05:25:46.245Z,11.50
2019-05-16T05:28:13.733Z,11.50
2019-05-16T05:30:42.103Z,11.30
2019-05-16T05:33:10.137Z,11.30
2019-05-16T05:35:37.162Z,11.20
2019-05-16T05:38:05.425Z,11.70
2019-05-16T05:40:32.922Z,11.60
2019-05-16T05:43:00.443Z,11.70
2019-05-16T05:45:30.496Z,11.70
2019-05-16T05:47:55.761Z,11.60
2019-05-16T05:50:23.248Z,11.60
2019-05-16T05:52:51.616Z,11.60
2019-05-16T05:55:20.065Z,11.70
2019-05-16T05:57:50.638Z,11.70
2019-05-16T06:00:17.069Z,11.70
2019-05-16T06:02:44.566Z,11.90
2019-05-16T06:05:12.063Z,11.80
2019-05-16T06:07:40.549Z,11.70
2019-05-16T06:10:07.177Z,11.80
2019-05-16T06:15:11.820Z,11.80
2019-05-16T06:17:36.228Z,11.80
2019-05-16T06:20:04.704Z,11.80
2019-05-16T06:22:32.191Z,11.80
2019-05-16T06:25:01.173Z,11.70
2019-05-16T06:27:30.033Z,11.70
2019-05-16T06:29:57.397Z,11.60
2019-05-16T06:32:23.385Z,11.70
2019-05-16T06:34:50.934Z,11.70
2019-05-16T06:37:20.540Z,11.70
2019-05-16T06:39:45.897Z,11.90
2019-05-16T06:42:14.263Z,12.10
2019-05-16T06:44:41.735Z,12.10
2019-05-16T06:47:19.382Z,12.10
2019-05-16T06:49:37.681Z,12.10
2019-05-16T06:52:05.171Z,12.00
2019-05-16T06:54:32.658Z,12.10
2019-05-16T06:57:00.365Z,12.20
2019-05-16T06:59:29.784Z,12.20
2019-05-16T07:01:56.822Z,12.10
2019-05-16T07:04:24.377Z,12.10
2019-05-16T07:06:58.982Z,12.10
2019-05-16T07:09:20.617Z,12.30
2019-05-16T07:11:47.198Z,12.40
2019-05-16T07:14:15.447Z,12.40
2019-05-16T07:16:43.051Z,12.40
2019-05-16T07:19:11.343Z,12.50
2019-05-16T07:21:39.714Z,12.40
2019-05-16T07:24:07.114Z,12.40
2019-05-16T07:26:34.599Z,12.40
2019-05-16T07:29:02.077Z,12.40
2019-05-16T07:31:30.144Z,12.30
2019-05-16T07:34:00.604Z,12.50
2019-05-16T07:36:25.623Z,12.50
2019-05-16T07:38:53.238Z,12.60
2019-05-16T07:41:20.824Z,12.70
2019-05-16T07:43:50.564Z,12.70
2019-05-16T07:46:17.453Z,12.70
2019-05-16T07:48:45.040Z,12.60
2019-05-16T07:51:12.545Z,12.70
2019-05-16T07:53:40.433Z,12.90
2019-05-16T07:56:10.439Z,13.10
2019-05-16T07:58:35.695Z,13.00
2019-05-16T08:01:08.053Z,12.90
2019-05-16T08:03:32.675Z,13.30
2019-05-16T08:06:01.594Z,13.20
2019-05-16T08:08:30.986Z,13.50
2019-05-16T08:10:55.979Z,13.90
2019-05-16T08:13:23.508Z,13.90
2019-05-16T08:15:51.914Z,14.00
2019-05-16T08:18:21.403Z,14.00
2019-05-16T08:20:47.053Z,14.20
2019-05-16T08:23:15.032Z,14.00
2019-05-16T08:25:42.493Z,13.60
2019-05-16T08:28:11.675Z,13.50
2019-05-16T08:30:41.000Z,13.80
2019-05-16T08:33:05.966Z,14.10
2019-05-16T08:35:33.446Z,14.10
2019-05-16T08:38:01.275Z,14.00
2019-05-16T08:40:31.589Z,13.80
2019-05-16T08:43:00.437Z,13.70
2019-05-16T08:45:25.529Z,13.70
2019-05-16T08:47:53.121Z,13.70
2019-05-16T08:52:52.727Z,13.50
2019-05-16T08:55:21.516Z,13.40
2019-05-16T08:57:45.602Z,13.40
2019-05-16T09:02:42.177Z,13.50
2019-05-16T09:05:13.055Z,13.60
2019-05-16T09:07:37.222Z,13.60
2019-05-16T09:10:10.281Z,13.50
2019-05-16T09:10:34.491Z,13.50
2019-05-16T09:10:37.862Z,13.60
2019-05-16T09:12:32.238Z,13.40
2019-05-16T09:14:59.772Z,13.50
2019-05-16T09:17:27.859Z,13.50
2019-05-16T09:19:57.672Z,13.70
2019-05-16T09:22:24.244Z,14.00
2019-05-16T09:24:51.810Z,14.00
2019-05-16T09:27:19.306Z,13.90
2019-05-16T09:29:47.653Z,14.00
2019-05-16T09:32:20.525Z,14.00
2019-05-16T09:34:43.914Z,14.10
2019-05-16T09:37:11.407Z,14.30
2019-05-16T09:39:39.812Z,14.30
2019-05-16T09:42:08.733Z,14.30
2019-05-16T09:44:36.972Z,14.30
2019-05-16T09:47:02.357Z,14.30
2019-05-16T09:49:31.574Z,14.30
2019-05-16T09:51:59.935Z,14.20
2019-05-16T09:54:28.183Z,14.00
2019-05-16T09:56:57.197Z,14.00
2019-05-16T09:59:26.205Z,14.10
2019-05-16T10:01:52.445Z,14.30
2019-05-16T10:04:19.932Z,14.30
2019-05-16T10:06:48.278Z,14.30
2019-05-16T10:09:17.522Z,14.30
2019-05-16T10:11:44.448Z,14.40
2019-05-16T10:14:11.940Z,14.30
2019-05-16T10:16:39.454Z,14.20
2019-05-16T10:19:07.467Z,14.20
2019-05-16T10:21:37.173Z,14.30
2019-05-16T10:24:03.908Z,14.40
2019-05-16T10:26:31.474Z,14.50
2019-05-16T10:29:00.157Z,14.50
2019-05-16T10:31:41.589Z,14.50
2019-05-16T10:33:58.099Z,14.50
2019-05-16T10:36:24.795Z,14.50
2019-05-16T10:38:52.315Z,14.60
2019-05-16T10:41:19.911Z,14.70
2019-05-16T10:43:47.615Z,14.60
2019-05-16T10:46:17.749Z,14.70
2019-05-16T10:48:43.417Z,14.60
2019-05-16T10:51:10.988Z,14.70
2019-05-16T10:54:09.531Z,14.80
2019-05-16T10:56:07.865Z,15.00
2019-05-16T10:58:43.887Z,15.00
2019-05-16T11:01:18.892Z,15.20
2019-05-16T11:03:32.674Z,15.40
2019-05-16T11:06:05.320Z,15.30
2019-05-16T11:08:28.846Z,15.70
2019-05-16T11:10:57.139Z,15.70
2019-05-16T11:13:23.866Z,15.80
2019-05-16T11:15:51.445Z,15.60
2019-05-16T11:18:19.013Z,15.40
2019-05-16T11:20:49.158Z,15.60
2019-05-16T11:23:14.006Z,15.60
2019-05-16T11:25:41.697Z,15.70
2019-05-16T11:28:09.191Z,15.50
2019-05-16T11:30:37.805Z,15.60
2019-05-16T11:33:07.555Z,15.50
2019-05-16T11:35:33.991Z,15.50
2019-05-16T11:38:01.787Z,15.60
2019-05-16T11:40:30.333Z,15.50
2019-05-16T11:43:10.118Z,15.60
2019-05-16T11:45:27.186Z,15.70
2019-05-16T11:47:56.624Z,15.70
2019-05-16T11:50:22.777Z,15.60
2019-05-16T11:52:50.331Z,15.50
2019-05-16T11:55:17.825Z,15.60
2019-05-16T11:57:47.680Z,15.60
2019-05-16T12:00:17.467Z,16.00
2019-05-16T12:02:43.083Z,15.80
2019-05-16T12:05:10.131Z,15.80
2019-05-16T12:07:44.185Z,15.90
2019-05-16T12:10:07.555Z,15.90
2019-05-16T12:12:36.951Z,16.10
2019-05-16T12:15:02.237Z,16.10
2019-05-16T12:17:29.759Z,16.10
2019-05-16T12:19:57.637Z,16.40
2019-05-16T12:22:26.797Z,16.60
2019-05-16T12:24:53.258Z,16.70
2019-05-16T12:27:20.843Z,16.70
2019-05-16T12:29:54.929Z,16.80
2019-05-16T12:32:17.114Z,16.80
2019-05-16T12:34:46.354Z,16.90
2019-05-16T12:37:13.237Z,16.90
2019-05-16T12:39:41.411Z,16.80
2019-05-16T12:42:08.935Z,16.90
2019-05-16T12:44:37.329Z,16.70
2019-05-16T12:47:04.093Z,16.90
2019-05-16T12:49:31.576Z,17.10
2019-05-16T12:51:59.141Z,17.30
2019-05-16T12:54:27.621Z,17.20
2019-05-16T12:56:58.116Z,17.30
2019-05-16T12:59:23.358Z,17.40
2019-05-16T13:01:50.894Z,17.40
2019-05-16T13:04:19.204Z,17.40
2019-05-16T13:06:47.083Z,17.60
2019-05-16T13:09:13.393Z,17.50
2019-05-16T13:11:40.875Z,17.60
2019-05-16T13:14:11.284Z,17.60
2019-05-16T13:16:37.609Z,17.80
2019-05-16T13:19:06.841Z,17.80
2019-05-16T13:21:32.157Z,17.70
2019-05-16T13:23:59.824Z,17.90
2019-05-16T13:26:27.454Z,17.50
2019-05-16T13:28:57.594Z,17.70
2019-05-16T13:31:23.350Z,17.80
2019-05-16T13:33:51.467Z,17.80
2019-05-16T13:36:19.561Z,17.70
2019-05-16T13:38:47.985Z,18.00
2019-05-16T13:41:18.034Z,17.80
2019-05-16T13:43:43.919Z,17.90
2019-05-16T13:46:13.037Z,18.00
2019-05-16T13:48:41.402Z,18.10
2019-05-16T13:51:15.285Z,18.20
2019-05-16T13:53:37.244Z,18.20
2019-05-16T13:56:12.606Z,17.90
2019-05-16T13:58:37.118Z,18.00
2019-05-16T14:01:03.928Z,18.20
2019-05-16T14:03:31.402Z,18.20
2019-05-16T14:05:59.482Z,18.20
2019-05-16T14:08:26.964Z,18.30
2019-05-16T14:11:00.695Z,18.40
2019-05-16T14:13:23.162Z,18.40
2019-05-16T14:15:50.630Z,18.50
2019-05-16T14:18:18.257Z,18.50
2019-05-16T14:20:46.578Z,18.90
2019-05-16T14:23:13.449Z,18.70
2019-05-16T14:25:41.095Z,18.70
2019-05-16T14:28:08.682Z,18.60
2019-05-16T14:30:37.177Z,18.50
2019-05-16T14:33:13.280Z,18.80
2019-05-16T14:35:33.155Z,18.70
2019-05-16T14:38:01.108Z,18.80
2019-05-16T14:40:28.390Z,18.70
2019-05-16T14:42:58.316Z,18.70
2019-05-16T14:45:23.407Z,19.00
2019-05-16T14:47:50.898Z,18.90
2019-05-16T14:50:18.452Z,19.10
2019-05-16T14:52:47.405Z,19.30
2019-05-16T14:55:14.453Z,19.70
2019-05-16T14:57:42.818Z,19.90
2019-05-16T15:00:10.324Z,19.90
2019-05-16T15:02:38.412Z,19.50
2019-05-16T15:05:07.851Z,18.80
2019-05-16T15:07:37.252Z,18.70
2019-05-16T15:10:02.139Z,18.60
2019-05-16T15:12:29.637Z,18.20
2019-05-16T15:15:14.135Z,18.30
2019-05-16T15:17:27.461Z,18.50
2019-05-16T15:19:53.875Z,18.70
2019-05-16T15:22:21.738Z,18.60
2019-05-16T15:24:49.291Z,18.50
2019-05-16T15:27:17.190Z,18.50
2019-05-16T15:29:44.632Z,18.60
2019-05-16T15:32:12.203Z,18.70
2019-05-16T15:34:39.927Z,18.60
2019-05-16T15:37:08.008Z,18.80
2019-05-16T15:39:37.333Z,18.80
2019-05-16T15:42:03.797Z,18.80
2019-05-16T15:44:31.404Z,18.80
2019-05-16T15:46:59.838Z,18.60
2019-05-16T15:49:27.210Z,18.20
2019-05-16T15:51:56.590Z,18.20
2019-05-16T15:54:23.156Z,18.60
2019-05-16T15:56:53.854Z,18.60
2019-05-16T15:59:21.352Z,18.60
2019-05-16T16:01:49.035Z,18.50
2019-05-16T16:04:17.607Z,18.90
2019-05-16T16:06:47.418Z,18.90
2019-05-16T16:09:13.644Z,18.80
2019-05-16T16:11:41.191Z,18.80
2019-05-16T16:14:08.679Z,18.70
2019-05-16T16:16:36.253Z,18.50
2019-05-16T16:19:06.429Z,18.50
2019-05-16T16:21:32.418Z,18.70
2019-05-16T16:24:00.665Z,18.80
2019-05-16T16:26:28.244Z,18.80
2019-05-16T16:28:56.716Z,18.70
2019-05-16T16:31:24.205Z,18.80
2019-05-16T16:33:52.459Z,19.10
2019-05-16T16:36:19.967Z,19.10
2019-05-16T16:38:47.790Z,19.30
2019-05-16T16:41:14.975Z,19.20
2019-05-16T16:43:42.614Z,18.80
2019-05-16T16:46:13.594Z,18.40
2019-05-16T16:48:38.461Z,18.40
2019-05-16T16:51:07.457Z,18.30
2019-05-16T16:53:37.481Z,18.30
2019-05-16T16:56:02.637Z,18.40
2019-05-16T16:58:30.252Z,18.20
2019-05-16T17:01:01.316Z,18.50
2019-05-16T17:03:27.288Z,18.30
2019-05-16T17:05:52.965Z,18.50
2019-05-16T17:08:23.302Z,18.00
2019-05-16T17:10:47.986Z,17.70
2019-05-16T17:13:16.982Z,18.00
2019-05-16T17:15:43.057Z,17.70
2019-05-16T17:18:10.555Z,17.90
2019-05-16T17:20:38.343Z,17.60
2019-05-16T17:23:06.834Z,17.90
2019-05-16T17:25:36.422Z,17.60
2019-05-16T17:28:01.754Z,17.60
2019-05-16T17:30:29.309Z,17.50
2019-05-16T17:32:56.869Z,18.20
2019-05-16T17:35:26.838Z,17.80
2019-05-16T17:37:52.321Z,17.40
2019-05-16T17:40:19.798Z,17.70
2019-05-16T17:42:48.176Z,17.20
2019-05-16T17:45:18.008Z,17.10
2019-05-16T17:47:43.928Z,17.10
2019-05-16T17:50:12.174Z,17.50
2019-05-16T17:52:39.910Z,17.50
2019-05-16T17:55:07.473Z,17.20
2019-05-16T17:57:36.963Z,17.00
2019-05-16T18:00:02.435Z,17.20
2019-05-16T18:02:29.991Z,16.90
2019-05-16T18:04:57.562Z,17.40
2019-05-16T18:07:25.061Z,17.20
2019-05-16T18:09:53.421Z,16.90
2019-05-16T18:12:21.688Z,16.70
2019-05-16T18:14:50.455Z,16.70
2019-05-16T18:17:17.775Z,16.50
2019-05-16T18:19:46.465Z,16.30
2019-05-16T18:22:12.901Z,16.30
2019-05-16T18:24:41.256Z,16.30
2019-05-16T18:27:08.822Z,16.30
2019-05-16T18:29:37.065Z,16.90
2019-05-16T18:32:06.760Z,16.90
2019-05-16T18:34:32.214Z,16.70
2019-05-16T18:37:00.763Z,16.50
2019-05-16T18:39:28.252Z,16.50
2019-05-16T18:41:56.524Z,16.80
2019-05-16T18:44:23.271Z,16.30
2019-05-16T18:47:03.720Z,15.80
2019-05-16T18:49:19.072Z,16.10
2019-05-16T18:51:47.441Z,16.20
2019-05-16T18:54:17.324Z,16.20
2019-05-16T18:56:43.979Z,15.90
2019-05-16T18:59:11.649Z,15.80
2019-05-16T19:01:39.308Z,15.90
2019-05-16T19:04:06.986Z,15.60
2019-05-16T19:06:37.048Z,15.90
2019-05-16T19:09:06.977Z,16.10
2019-05-16T19:11:33.276Z,16.20
2019-05-16T19:14:01.632Z,16.20
2019-05-16T19:16:29.198Z,16.20
2019-05-16T19:18:58.566Z,16.10
2019-05-16T19:21:26.257Z,15.50
2019-05-16T19:23:52.725Z,15.50
2019-05-16T19:26:21.003Z,15.80
2019-05-16T19:28:49.282Z,16.10
2019-05-16T19:31:17.253Z,16.00
2019-05-16T19:33:48.598Z,16.10
2019-05-16T19:36:12.116Z,16.10
2019-05-16T19:38:39.598Z,16.10
2019-05-16T19:41:08.042Z,15.50
2019-05-16T19:43:37.019Z,15.10
2019-05-16T19:46:02.169Z,15.60
2019-05-16T19:48:29.710Z,15.60
2019-05-16T19:50:57.956Z,15.60
2019-05-16T19:53:27.233Z,15.60
2019-05-16T19:55:53.711Z,15.20
2019-05-16T19:58:21.194Z,15.20
2019-05-16T20:00:49.457Z,15.60
2019-05-16T20:03:17.016Z,15.60
2019-05-16T20:05:44.518Z,15.40
2019-05-16T20:08:12.761Z,14.70
2019-05-16T20:10:41.767Z,15.60
2019-05-16T20:13:09.338Z,15.60
2019-05-16T20:15:37.594Z,14.70
2019-05-16T20:18:07.426Z,14.70
2019-05-16T20:20:32.597Z,15.00
2019-05-16T20:23:00.103Z,15.00
2019-05-16T20:25:27.665Z,15.40
2019-05-16T20:27:55.319Z,15.20
2019-05-16T20:30:22.962Z,15.20
2019-05-16T20:32:50.453Z,15.40
2019-05-16T20:35:17.944Z,14.90
2019-05-16T20:37:47.304Z,14.90
2019-05-16T20:40:14.472Z,15.20
2019-05-16T20:42:42.633Z,15.20
2019-05-16T20:45:10.119Z,15.40
2019-05-16T20:47:38.367Z,15.60
2019-05-16T20:50:07.659Z,15.60
2019-05-16T20:52:33.486Z,15.30
2019-05-16T20:55:00.979Z,15.60
2019-05-16T20:57:29.616Z,14.70
2019-05-16T20:59:57.560Z,14.60
2019-05-16T21:02:27.480Z,15.50
2019-05-16T21:04:57.049Z,15.80
2019-05-16T21:07:23.534Z,15.80
2019-05-16T21:09:53.646Z,15.50
2019-05-16T21:12:21.199Z,15.50
2019-05-16T21:14:48.761Z,15.20
2019-05-16T21:17:17.385Z,15.30
2019-05-16T21:19:43.894Z,15.30
2019-05-16T21:22:11.381Z,15.00
2019-05-16T21:24:39.726Z,15.40
2019-05-16T21:27:07.291Z,15.40
2019-05-16T21:29:36.788Z,15.60
2019-05-16T21:32:04.094Z,15.10
2019-05-16T21:34:32.342Z,15.00
2019-05-16T21:37:11.291Z,15.00
2019-05-16T21:39:28.498Z,15.40
2019-05-16T21:41:56.425Z,15.40
2019-05-16T21:44:25.995Z,14.90
2019-05-16T21:46:53.560Z,14.70
2019-05-16T21:49:20.453Z,14.60
2019-05-16T21:51:48.065Z,14.20
2019-05-16T21:54:15.537Z,14.40
2019-05-16T21:56:43.789Z,14.80
2019-05-16T21:59:11.367Z,14.70
2019-05-16T22:01:38.936Z,14.70
2019-05-16T22:04:07.552Z,14.50
2019-05-16T22:06:36.584Z,14.50
2019-05-16T22:09:06.646Z,14.70
2019-05-16T22:11:31.930Z,14.70
2019-05-16T22:14:01.114Z,14.60
2019-05-16T22:16:28.604Z,14.80
2019-05-16T22:18:56.569Z,14.80
2019-05-16T22:21:24.470Z,14.80
2019-05-16T22:23:52.022Z,14.90
2019-05-16T22:26:19.506Z,14.80
2019-05-16T22:28:49.493Z,14.80
2019-05-16T22:31:16.515Z,14.80
2019-05-16T22:33:43.566Z,14.70
2019-05-16T22:36:11.061Z,14.80
2019-05-16T22:38:38.644Z,14.70
2019-05-16T22:41:07.331Z,14.70
2019-05-16T22:43:33.658Z,14.60
2019-05-16T22:46:01.218Z,14.80
2019-05-16T22:48:28.714Z,14.60
2019-05-16T22:50:57.074Z,14.40
2019-05-16T22:53:27.039Z,14.40
2019-05-16T22:55:52.116Z,14.80
2019-05-16T22:58:20.374Z,14.90
2019-05-16T23:00:47.896Z,14.90
2019-05-16T23:03:17.413Z,14.70
2019-05-16T23:05:43.689Z,14.40
2019-05-16T23:08:11.185Z,14.50
2019-05-16T23:10:38.669Z,14.10
2019-05-16T23:13:06.848Z,13.70
2019-05-16T23:15:34.779Z,13.80
2019-05-16T23:18:06.746Z,13.70
2019-05-16T23:20:31.959Z,13.70
2019-05-16T23:23:00.316Z,13.80
2019-05-16T23:25:28.010Z,13.80
2019-05-16T23:27:56.640Z,13.40
2019-05-16T23:30:27.097Z,13.60
2019-05-16T23:32:53.221Z,13.50
2019-05-16T23:35:20.817Z,13.50
2019-05-16T23:37:48.377Z,13.40
2019-05-16T23:40:16.041Z,13.50
2019-05-16T23:42:46.403Z,13.30
2019-05-16T23:45:12.797Z,13.40
2019-05-16T23:47:41.791Z,13.60
2019-05-16T23:50:09.258Z,13.60
2019-05-16T23:52:37.047Z,13.70
2019-05-16T23:55:04.279Z,13.50
2019-05-16T23:57:31.948Z,13.40
2019-05-16T23:59:59.503Z,13.50
